logo
Rechercher aéroport 
image banner adimage banner adimage banner ad
image banner ad

53CL - Lofty Redwoods

Situé à Anchor Bay, United States

ICAO - 53CL, IATA -

Données fournies par Airmate  

Information générale

Coordonnées: N38°51'35" W123°35'26"
Élévation : 1317 feet MSL.
Variation magnétique : 17° East
Voir autres Aéroports à California

Données opérationnelles

Special qualification required
Heure actuelle UTC:
Heure actuelle locale:
Météo à : KUKI - Ukiah Muni ( 45 km )
METAR: KUKI 051656Z AUTO 00000KT 10SM OVC025 09/07 A3000 RMK AO2 RAE45 SLP156 P0006 T00890072
TAF: KUKI 050257Z 0503/0524 00000KT P6SM VCSH BKN045 BKN060 FM051000 16004KT 3SM -SHRA BR FEW007 BKN015 OVC030 TEMPO 0510/0512 2SM SHRA BKN008
Voir NOTAMs / SUP AIP / TFR affectant cet aéroport [VIEW]
Fréquences de communication: [VIEW]

Pistes:

Identifiant RWYQFULongueur (ft)Largeur (ft)SurfaceLDA (ft)
13320060OTHER
31320060OTHER

Coordonnées de l'aéroport

Adresse: Anchor Bay United States

Vue satellite de 53CL